Time;durP1;ratioP1;P1;durP2;ratioP2;P2;SDS_P1;SDS_P2;PMS_P1;PMS_P2;Temp;Humidity;BMP_temperature;BMP_pressure;BME280_temperature;BME280_humidity;BME280_pressure;Samples;Min_cycle;Max_cycle;Signal;HPM_P1;HPM_P2
2021/01/17 00:01:44;;;;;;;27.83;10.40;;;;;;;-0.90;100.00;101083.25;5009841;28;20119;-69
2021/01/17 00:04:09;;;;;;;24.90;10.17;;;;;;;-0.92;100.00;101095.13;5011840;28;20112;-68
2021/01/17 00:06:35;;;;;;;25.20;10.17;;;;;;;-0.92;100.00;101082.28;5012088;28;20366;-69
2021/01/17 00:09:00;;;;;;;23.00;9.10;;;;;;;-0.93;100.00;101083.09;5015470;28;20029;-68
2021/01/17 00:11:26;;;;;;;26.70;10.37;;;;;;;-0.91;100.00;101086.63;5010301;28;20033;-69
2021/01/17 00:13:51;;;;;;;27.40;10.37;;;;;;;-0.91;100.00;101082.38;5010181;28;20504;-68
2021/01/17 00:16:17;;;;;;;24.37;10.23;;;;;;;-0.90;100.00;101072.97;5016874;28;20029;-68
2021/01/17 00:18:42;;;;;;;27.97;10.23;;;;;;;-0.91;100.00;101066.09;5011471;28;20030;-69
2021/01/17 00:21:08;;;;;;;25.63;10.10;;;;;;;-0.91;100.00;101063.50;5011828;28;20051;-68
2021/01/17 00:23:35;;;;;;;26.50;10.40;;;;;;;-0.90;100.00;101055.00;5008797;28;20029;-68
2021/01/17 00:26:01;;;;;;;24.73;9.47;;;;;;;-0.88;100.00;101051.72;5010126;28;20025;-68
2021/01/17 00:28:26;;;;;;;26.80;10.80;;;;;;;-0.91;100.00;101046.44;5013700;28;20283;-68
2021/01/17 00:30:52;;;;;;;24.00;9.40;;;;;;;-0.90;100.00;101043.06;5009319;28;20026;-68
2021/01/17 00:33:17;;;;;;;23.07;8.90;;;;;;;-0.88;100.00;101045.69;5008810;28;20486;-66
2021/01/17 00:35:42;;;;;;;27.27;11.03;;;;;;;-0.90;100.00;101042.19;5011040;28;20037;-67
2021/01/17 00:38:08;;;;;;;23.90;9.90;;;;;;;-0.91;100.00;101035.28;5013851;28;20052;-66
2021/01/17 00:40:33;;;;;;;26.03;10.47;;;;;;;-0.91;100.00;101040.41;5012452;28;20041;-66
2021/01/17 00:42:59;;;;;;;24.30;9.43;;;;;;;-0.91;100.00;101040.41;5010998;28;20033;-67
2021/01/17 00:45:26;;;;;;;21.70;9.13;;;;;;;-0.92;100.00;101034.41;5007294;28;20707;-65
2021/01/17 00:47:51;;;;;;;21.00;8.50;;;;;;;-0.93;100.00;101029.19;5012415;28;20072;-67
2021/01/17 00:50:19;;;;;;;22.13;8.90;;;;;;;-0.91;100.00;101040.41;5010739;28;20278;-65
2021/01/17 00:52:45;;;;;;;17.50;7.63;;;;;;;-0.92;100.00;101036.09;5013263;28;20030;-66
2021/01/17 00:55:11;;;;;;;22.47;8.80;;;;;;;-0.93;100.00;101031.75;5007490;28;20355;-67
2021/01/17 00:57:37;;;;;;;23.07;8.40;;;;;;;-0.94;100.00;101030.00;5009915;28;20284;-66
2021/01/17 01:00:07;;;;;;;22.43;8.87;;;;;;;-0.92;100.00;101030.94;5010978;28;20872;-67
2021/01/17 01:02:33;;;;;;;22.63;9.13;;;;;;;-0.92;100.00;101030.94;5014196;28;20030;-65
2021/01/17 01:04:58;;;;;;;22.80;8.50;;;;;;;-0.94;100.00;101025.75;5011448;28;20331;-66
2021/01/17 01:07:26;;;;;;;24.97;9.67;;;;;;;-0.95;100.00;101023.09;5013352;28;20029;-66
2021/01/17 01:09:51;;;;;;;21.37;8.17;;;;;;;-0.94;100.00;101020.63;5013435;28;20034;-67
2021/01/17 01:12:17;;;;;;;25.83;9.60;;;;;;;-0.95;100.00;101023.09;5014345;28;20455;-67
2021/01/17 01:14:42;;;;;;;23.63;8.50;;;;;;;-0.95;100.00;101017.97;5011042;28;20044;-66
2021/01/17 01:17:08;;;;;;;23.67;8.53;;;;;;;-0.96;100.00;101023.91;5014443;28;20033;-66
2021/01/17 01:19:33;;;;;;;23.10;9.33;;;;;;;-0.96;100.00;101024.78;5014340;28;20060;-67
2021/01/17 01:22:01;;;;;;;22.10;8.17;;;;;;;-0.94;100.00;101027.44;5010862;28;20128;-67
2021/01/17 01:24:26;;;;;;;22.20;9.07;;;;;;;-0.96;100.00;101024.78;5014592;28;20028;-66
2021/01/17 01:26:52;;;;;;;21.90;8.33;;;;;;;-0.96;100.00;101026.47;5012054;28;20269;-66
2021/01/17 01:29:17;;;;;;;25.60;9.67;;;;;;;-0.95;100.00;101023.09;5016598;28;20103;-67
2021/01/17 01:31:43;;;;;;;21.07;8.77;;;;;;;-0.98;100.00;101022.91;5020323;28;20061;-67
2021/01/17 01:34:08;;;;;;;21.27;8.77;;;;;;;-0.98;100.00;101012.66;5010170;28;20044;-65
2021/01/17 01:36:36;;;;;;;21.30;7.23;;;;;;;-0.98;100.00;101012.66;5010860;28;20119;-67
2021/01/17 01:39:04;;;;;;;23.43;8.87;;;;;;;-1.02;100.00;101010.72;5012386;28;20397;-67
2021/01/17 01:41:32;;;;;;;27.10;8.70;;;;;;;-1.04;100.00;101007.22;5015347;28;20283;-66
2021/01/17 01:43:58;;;;;;;20.17;7.97;;;;;;;-1.03;100.00;101016.66;5012146;28;20273;-67
2021/01/17 01:46:26;;;;;;;21.53;8.83;;;;;;;-1.06;100.00;101014.84;5009423;28;20522;-66
2021/01/17 01:48:53;;;;;;;23.83;9.03;;;;;;;-1.07;100.00;101015.63;5012445;28;20488;-66
2021/01/17 01:51:22;;;;;;;22.73;8.43;;;;;;;-1.10;100.00;101004.31;5011829;28;20264;-67
2021/01/17 01:53:50;;;;;;;21.43;8.60;;;;;;;-1.08;100.00;101010.44;5014483;28;20963;-67
2021/01/17 01:56:16;;;;;;;20.13;8.43;;;;;;;-1.09;100.00;101006.06;5018869;28;20324;-67
2021/01/17 01:58:42;;;;;;;25.77;9.90;;;;;;;-1.13;100.00;101002.47;5018179;28;20291;-67
2021/01/17 02:01:09;;;;;;;22.97;8.87;;;;;;;-1.12;100.00;100993.97;5019524;28;20265;-67
2021/01/17 02:03:34;;;;;;;24.87;9.13;;;;;;;-1.14;100.00;101004.94;5028586;28;20767;-66
2021/01/17 02:06:01;;;;;;;23.83;9.23;;;;;;;-1.15;100.00;100982.66;5024094;28;20279;-67
2021/01/17 02:08:51;;;;;;;26.80;9.40;;;;;;;-1.14;100.00;100985.31;5028746;28;20455;-67
2021/01/17 02:11:16;;;;;;;21.43;8.63;;;;;;;-1.16;100.00;100986.03;5025431;28;20307;-68
2021/01/17 02:13:46;;;;;;;19.93;8.73;;;;;;;-1.16;100.00;100986.91;5027283;28;20779;-67
2021/01/17 02:16:12;;;;;;;24.93;10.07;;;;;;;-1.19;100.00;100979.06;5028684;28;20034;-67
2021/01/17 02:18:41;;;;;;;29.53;10.10;;;;;;;-1.16;100.00;100986.03;5023588;28;20276;-66
2021/01/17 02:21:09;;;;;;;26.03;9.33;;;;;;;-1.17;100.00;100980.03;5024666;28;20030;-66
2021/01/17 02:23:48;;;;;;;22.73;9.40;;;;;;;-1.17;100.00;100979.16;5020677;28;20335;-68
2021/01/17 02:26:14;;;;;;;22.40;8.60;;;;;;;-1.17;100.00;100971.44;5015923;28;20276;-68
2021/01/17 02:28:42;;;;;;;29.20;10.07;;;;;;;-1.17;100.00;100969.75;5018986;28;20284;-67
2021/01/17 02:31:08;;;;;;;23.63;9.57;;;;;;;-1.16;100.00;100970.63;5013929;28;20493;-67
2021/01/17 02:33:36;;;;;;;26.40;10.67;;;;;;;-1.17;100.00;100967.19;5014945;28;20276;-67
2021/01/17 02:36:28;;;;;;;27.20;10.13;;;;;;;-1.19;100.00;100974.81;5026389;28;20268;-67
2021/01/17 02:38:59;;;;;;;23.37;8.63;;;;;;;-1.20;100.00;100965.34;5031976;28;20290;-67
2021/01/17 02:41:34;;;;;;;23.67;9.63;;;;;;;-1.19;100.00;100962.00;5026891;28;20674;-68
2021/01/17 02:44:00;;;;;;;25.37;9.40;;;;;;;-1.19;100.00;100964.56;5021954;28;20803;-69
2021/01/17 02:46:25;;;;;;;25.20;10.33;;;;;;;-1.19;100.00;100959.41;5014102;28;20268;-67
2021/01/17 02:48:51;;;;;;;29.03;9.50;;;;;;;-1.19;100.00;100959.41;5018180;28;20272;-68
2021/01/17 02:51:16;;;;;;;26.37;8.63;;;;;;;-1.19;100.00;100951.72;5028382;28;20025;-68
2021/01/17 02:53:45;;;;;;;23.23;9.67;;;;;;;-1.16;100.00;100961.25;5015352;28;20420;-68
2021/01/17 02:56:17;;;;;;;26.03;9.33;;;;;;;-1.19;100.00;100958.53;5021609;28;20033;-68
2021/01/17 02:58:47;;;;;;;24.65;9.02;;;;;;;-1.19;100.00;100962.00;5027198;28;20276;-68
2021/01/17 03:01:12;;;;;;;23.60;8.80;;;;;;;-1.17;100.00;100953.50;5040100;28;20407;-68
2021/01/17 03:03:42;;;;;;;21.13;7.93;;;;;;;-1.14;100.00;100948.50;5034155;28;20402;-67
2021/01/17 03:06:10;;;;;;;24.47;9.03;;;;;;;-1.15;100.00;100955.31;5028823;28;20021;-65
2021/01/17 03:08:37;;;;;;;25.50;8.57;;;;;;;-1.19;100.00;100946.59;5021779;28;20643;-67
2021/01/17 03:11:04;;;;;;;24.47;9.17;;;;;;;-1.21;100.00;100953.34;5037380;28;20282;-68
2021/01/17 03:13:31;;;;;;;23.23;8.87;;;;;;;-1.23;100.00;100952.34;5026277;28;20268;-67
2021/01/17 03:15:57;;;;;;;28.93;8.40;;;;;;;-1.26;100.00;100957.31;5020311;28;20356;-68
2021/01/17 03:18:22;;;;;;;21.53;7.87;;;;;;;-1.27;100.00;100955.56;5018799;28;20299;-67
2021/01/17 03:20:48;;;;;;;25.40;9.50;;;;;;;-1.30;100.00;100962.22;5048488;28;20376;-67
2021/01/17 03:23:13;;;;;;;23.50;8.13;;;;;;;-1.30;100.00;100968.22;5035672;28;20033;-66
2021/01/17 03:25:39;;;;;;;21.43;8.60;;;;;;;-1.34;100.00;100968.84;5034378;28;20022;-69
2021/01/17 03:28:04;;;;;;;27.03;8.97;;;;;;;-1.38;100.00;100961.81;5021158;28;20512;-67
2021/01/17 03:30:30;;;;;;;24.13;9.50;;;;;;;-1.36;100.00;100962.75;5026811;28;20129;-67
2021/01/17 03:32:55;;;;;;;24.23;8.33;;;;;;;-1.39;100.00;100957.47;5022884;28;20030;-68
2021/01/17 03:35:20;;;;;;;25.37;8.33;;;;;;;-1.41;100.00;100956.53;5027800;28;20074;-67
2021/01/17 03:37:46;;;;;;;23.73;8.40;;;;;;;-1.41;100.00;100965.91;5049792;28;20483;-65
2021/01/17 03:40:12;;;;;;;20.83;8.13;;;;;;;-1.45;100.00;100959.72;5038402;28;20037;-68
2021/01/17 03:42:37;;;;;;;24.50;8.63;;;;;;;-1.48;100.00;100962.09;5035216;28;20029;-67
2021/01/17 03:45:03;;;;;;;26.70;8.70;;;;;;;-1.50;100.00;100948.31;5030226;28;20029;-68
2021/01/17 03:47:29;;;;;;;23.67;8.53;;;;;;;-1.50;100.00;100956.03;5033295;28;20115;-68
2021/01/17 03:49:54;;;;;;;28.57;8.07;;;;;;;-1.49;100.00;100955.22;5031770;28;20291;-68
2021/01/17 03:52:19;;;;;;;23.00;8.47;;;;;;;-1.49;100.00;100950.09;5035274;28;20120;-68
2021/01/17 03:54:45;;;;;;;22.53;7.43;;;;;;;-1.45;100.00;100957.16;5043324;28;20044;-68
2021/01/17 03:57:10;;;;;;;19.73;7.03;;;;;;;-1.50;100.00;100956.91;5034577;28;20032;-66
2021/01/17 03:59:36;;;;;;;22.57;7.37;;;;;;;-1.49;100.00;100966.34;5032568;28;20099;-68
2021/01/17 04:02:01;;;;;;;21.20;7.40;;;;;;;-1.47;100.00;100958.75;5018961;28;20034;-67
2021/01/17 04:04:26;;;;;;;23.37;8.53;;;;;;;-1.49;100.00;100968.03;5030799;28;20040;-65
2021/01/17 04:06:52;;;;;;;24.23;8.27;;;;;;;-1.48;100.00;100967.22;5024034;28;20473;-68
2021/01/17 04:09:17;;;;;;;26.67;8.40;;;;;;;-1.51;100.00;100975.66;5027306;28;20126;-67
2021/01/17 04:11:43;;;;;;;22.73;8.40;;;;;;;-1.52;100.00;100966.19;5033020;28;20036;-66
2021/01/17 04:14:08;;;;;;;25.00;8.23;;;;;;;-1.52;100.00;100970.44;5034986;28;20044;-68
2021/01/17 04:16:33;;;;;;;21.17;8.00;;;;;;;-1.53;100.00;100961.88;5030881;28;20037;-68
2021/01/17 04:18:59;;;;;;;24.60;8.77;;;;;;;-1.51;100.00;100965.41;5035204;28;20036;-66
2021/01/17 04:21:24;;;;;;;19.37;7.73;;;;;;;-1.50;100.00;100963.72;5024854;28;20401;-68
2021/01/17 04:23:50;;;;;;;22.73;8.13;;;;;;;-1.50;100.00;100968.84;5015713;28;20404;-68
2021/01/17 04:26:18;;;;;;;21.73;8.17;;;;;;;-1.50;100.00;100964.59;5022925;28;20026;-67
2021/01/17 04:28:44;;;;;;;20.43;7.33;;;;;;;-1.51;100.00;100957.69;5037775;28;20040;-68
2021/01/17 04:31:10;;;;;;;19.93;7.57;;;;;;;-1.51;100.00;100961.94;5049086;28;20288;-68
2021/01/17 04:33:35;;;;;;;18.93;6.90;;;;;;;-1.45;100.00;100962.28;5013010;28;20631;-67
2021/01/17 04:36:01;;;;;;;23.27;8.03;;;;;;;-1.49;100.00;100968.03;5022301;28;20038;-68
2021/01/17 04:38:30;;;;;;;24.07;8.57;;;;;;;-1.53;100.00;100958.44;5034824;28;20108;-68
2021/01/17 04:41:00;;;;;;;19.17;7.67;;;;;;;-1.53;100.00;100963.56;5035977;28;20040;-66
2021/01/17 04:43:38;;;;;;;21.63;6.70;;;;;;;-1.52;100.00;100960.19;5014404;28;20319;-68
2021/01/17 04:46:04;;;;;;;22.23;7.37;;;;;;;-1.49;100.00;100962.91;5024276;28;20310;-67
2021/01/17 04:48:31;;;;;;;25.47;8.43;;;;;;;-1.54;100.00;100957.53;5028085;28;20350;-66
2021/01/17 04:51:00;;;;;;;25.33;8.70;;;;;;;-1.55;100.00;100968.59;5027107;28;20029;-67
2021/01/17 04:53:28;;;;;;;21.27;7.70;;;;;;;-1.54;100.00;100964.34;5012449;28;20276;-68
2021/01/17 04:56:20;;;;;;;24.03;7.87;;;;;;;-1.55;100.00;100966.03;5015890;28;20284;-66
2021/01/17 04:59:00;;;;;;;23.67;7.82;;;;;;;-1.57;100.00;100965.09;5023269;28;20634;-67
2021/01/17 05:01:48;;;;;;;25.17;8.37;;;;;;;-1.55;100.00;100965.16;5032698;28;20033;-68
2021/01/17 05:04:22;;;;;;;19.60;7.70;;;;;;;-1.55;100.00;100977.97;5015242;28;20371;-68
2021/01/17 05:06:50;;;;;;;25.27;8.10;;;;;;;-1.58;100.00;100967.53;5043978;28;20302;-68
2021/01/17 05:09:21;;;;;;;21.97;7.93;;;;;;;-1.59;100.00;100963.22;5020979;28;20288;-67
2021/01/17 05:11:51;;;;;;;25.27;8.60;;;;;;;-1.61;100.00;100960.56;5041607;28;20283;-67
2021/01/17 05:14:43;;;;;;;22.33;7.67;;;;;;;-1.58;100.00;100955.59;5039970;28;20762;-66
2021/01/17 05:17:10;;;;;;;21.27;8.03;;;;;;;-1.58;100.00;100959.84;5013003;28;20376;-66
2021/01/17 05:19:38;;;;;;;22.70;7.90;;;;;;;-1.61;100.00;100962.25;5029700;28;20790;-67
2021/01/17 05:22:05;;;;;;;19.53;6.70;;;;;;;-1.56;100.00;100955.72;5029332;28;20279;-67
2021/01/17 05:24:31;;;;;;;22.60;8.87;;;;;;;-1.58;100.00;100957.28;5026137;28;20740;-67
2021/01/17 05:26:59;;;;;;;22.27;8.10;;;;;;;-1.59;100.00;100964.09;5011704;28;20253;-67
2021/01/17 05:29:27;;;;;;;23.60;7.90;;;;;;;-1.59;100.00;100955.50;5028201;28;20280;-67
2021/01/17 05:32:04;;;;;;;24.47;8.20;;;;;;;-1.60;100.00;100962.31;5025779;28;20272;-67
2021/01/17 05:34:32;;;;;;;24.00;7.03;;;;;;;-1.59;100.00;100963.22;5029702;28;20276;-67
2021/01/17 05:37:02;;;;;;;22.03;8.00;;;;;;;-1.58;100.00;100957.28;5043457;28;20291;-67
2021/01/17 05:39:28;;;;;;;20.63;8.33;;;;;;;-1.59;100.00;100960.66;5028185;28;20282;-67
2021/01/17 05:41:53;;;;;;;24.90;7.43;;;;;;;-1.59;100.00;100968.34;5028617;28;20272;-67
2021/01/17 05:44:31;;;;;;;22.67;8.07;;;;;;;-1.59;100.00;100973.47;5030587;28;20111;-67
2021/01/17 05:47:06;;;;;;;24.77;7.90;;;;;;;-1.61;100.00;100975.94;5022640;28;20017;-67
2021/01/17 05:49:32;;;;;;;21.03;8.00;;;;;;;-1.58;100.00;100970.09;5037423;28;20314;-68
2021/01/17 05:52:15;;;;;;;23.37;8.00;;;;;;;-1.58;100.00;100980.34;5038702;28;20280;-67
2021/01/17 05:54:41;;;;;;;;;;;;;;;-1.57;100.00;100982.16;5028919;28;20273;-68
2021/01/17 05:57:15;;;;;;;19.13;6.63;;;;;;;-1.56;100.00;100983.91;5012454;28;20391;-67
2021/01/17 05:59:41;;;;;;;21.63;7.23;;;;;;;-1.54;100.00;100977.19;5020402;28;20279;-66
2021/01/17 06:02:24;;;;;;;22.40;8.33;;;;;;;-1.55;100.00;100985.66;5022684;28;20308;-67
2021/01/17 06:04:54;;;;;;;19.73;7.07;;;;;;;-1.52;100.00;100986.72;5045395;28;20685;-67
2021/01/17 06:07:23;;;;;;;21.47;7.30;;;;;;;-1.50;100.00;100989.34;5025948;28;20018;-68
2021/01/17 06:10:18;;;;;;;18.53;6.97;;;;;;;-1.42;100.00;100992.34;5019022;28;20280;-68
2021/01/17 06:12:50;;;;;;;23.40;7.23;;;;;;;-1.45;100.00;100987.94;5029440;28;20272;-68
2021/01/17 06:15:16;;;;;;;21.50;6.87;;;;;;;-1.43;100.00;100985.44;5026069;28;20279;-68
2021/01/17 06:17:46;;;;;;;23.80;8.53;;;;;;;-1.47;100.00;100984.38;5020792;28;20356;-68
2021/01/17 06:20:25;;;;;;;22.57;8.87;;;;;;;-1.47;100.00;100990.38;5017538;28;20045;-68
2021/01/17 06:22:58;;;;;;;21.70;8.43;;;;;;;-1.50;100.00;100994.47;5028172;28;20639;-68
2021/01/17 06:25:28;;;;;;;27.70;8.93;;;;;;;-1.52;100.00;100988.38;5017082;28;20288;-68
2021/01/17 06:28:06;;;;;;;24.17;8.27;;;;;;;-1.53;100.00;101004.56;5011541;28;20307;-67
2021/01/17 06:30:32;;;;;;;23.93;7.83;;;;;;;-1.52;100.00;101002.09;5026354;28;20367;-68
2021/01/17 06:32:58;;;;;;;22.70;8.10;;;;;;;-1.53;100.00;100999.44;5012772;28;20362;-68
2021/01/17 06:35:42;;;;;;;20.80;7.47;;;;;;;-1.47;100.00;100999.78;5041091;28;20111;-67
2021/01/17 06:38:18;;;;;;;20.40;6.40;;;;;;;-1.51;100.00;100997.84;5020266;28;20100;-66
2021/01/17 06:40:45;;;;;;;24.33;7.73;;;;;;;-1.49;100.00;101001.38;5028005;28;20279;-66
2021/01/17 06:43:12;;;;;;;28.03;9.13;;;;;;;-1.55;100.00;101001.06;5025572;28;20762;-68
2021/01/17 06:45:45;;;;;;;28.37;7.73;;;;;;;-1.57;100.00;100993.28;5034131;28;20290;-69
2021/01/17 06:48:25;;;;;;;24.63;7.57;;;;;;;-1.58;100.00;100996.63;5020695;28;20303;-68
2021/01/17 06:50:51;;;;;;;24.97;8.27;;;;;;;-1.60;100.00;100999.91;5015152;28;20293;-68
2021/01/17 06:53:23;;;;;;;26.13;8.60;;;;;;;-1.62;100.00;100998.94;5025248;28;20767;-68
2021/01/17 06:55:49;;;;;;;;;;;;;;;-1.61;100.00;101008.38;5027194;28;20291;-68
2021/01/17 06:58:17;;;;;;;21.60;7.73;;;;;;;-1.61;100.00;101005.81;5025320;28;20384;-68
2021/01/17 07:00:46;;;;;;;25.00;7.67;;;;;;;-1.62;100.00;101004.06;5031358;28;20104;-68
2021/01/17 07:03:17;;;;;;;27.20;9.33;;;;;;;-1.63;100.00;101007.44;5015605;28;20790;-67
2021/01/17 07:06:01;;;;;;;29.97;8.97;;;;;;;-1.63;100.00;101005.75;5021269;28;20272;-68
2021/01/17 07:08:48;;;;;;;23.97;8.70;;;;;;;-1.62;100.00;101009.19;5024129;28;20271;-66
2021/01/17 07:11:21;;;;;;;25.17;8.33;;;;;;;-1.63;100.00;101012.56;5011621;28;20849;-68
2021/01/17 07:13:50;;;;;;;24.70;8.33;;;;;;;-1.65;100.00;101014.16;5011178;28;20760;-68
2021/01/17 07:16:31;;;;;;;29.50;9.53;;;;;;;-1.64;100.00;101019.38;5021145;28;20296;-68
2021/01/17 07:19:01;;;;;;;28.77;9.93;;;;;;;-1.64;100.00;101015.91;5015057;28;20349;-67
2021/01/17 07:21:32;;;;;;;22.10;7.93;;;;;;;-1.63;100.00;101012.56;5016261;28;20805;-67
2021/01/17 07:24:03;;;;;;;29.27;8.93;;;;;;;-1.63;100.00;101007.44;5012805;28;20391;-68
2021/01/17 07:26:38;;;;;;;30.93;9.43;;;;;;;-1.63;100.00;101013.44;5013680;28;20256;-67
2021/01/17 07:29:07;;;;;;;27.63;9.13;;;;;;;-1.63;100.00;101023.69;5019162;28;20315;-67
2021/01/17 07:31:36;;;;;;;25.63;8.23;;;;;;;-1.63;100.00;101010.88;5021416;28;20319;-67
2021/01/17 07:34:12;;;;;;;31.47;9.63;;;;;;;-1.63;100.00;101018.56;5027962;28;20283;-67
2021/01/17 07:36:48;;;;;;;28.40;9.43;;;;;;;-1.62;100.00;101020.31;5016252;28;20294;-67
2021/01/17 07:39:20;;;;;;;26.43;10.00;;;;;;;-1.62;100.00;101019.44;5025029;28;20365;-68
2021/01/17 07:41:48;;;;;;;23.08;9.07;;;;;;;-1.63;100.00;101025.38;5010582;28;20364;-68
2021/01/17 07:44:19;;;;;;;32.03;9.03;;;;;;;-1.63;100.00;101028.81;5014779;28;20544;-67
2021/01/17 07:46:46;;;;;;;30.83;10.38;;;;;;;-1.58;100.00;101026.50;5029275;28;20268;-67
2021/01/17 07:49:13;;;;;;;29.30;9.27;;;;;;;-1.58;100.00;101037.63;5044901;28;20032;-66
2021/01/17 07:51:39;;;;;;;26.30;9.10;;;;;;;-1.53;100.00;101035.34;5034576;28;20612;-68
2021/01/17 07:54:10;;;;;;;25.73;9.50;;;;;;;-1.52;100.00;101042.22;5034354;28;20362;-68
2021/01/17 07:56:39;;;;;;;25.87;8.57;;;;;;;-1.49;100.00;101045.84;5028773;28;20736;-67
2021/01/17 07:59:07;;;;;;;28.90;9.03;;;;;;;-1.46;100.00;101047.69;5031852;28;20308;-68
2021/01/17 08:01:35;;;;;;;29.67;9.10;;;;;;;-1.43;100.00;101053.00;5025052;28;20355;-67
2021/01/17 08:04:07;;;;;;;29.03;9.80;;;;;;;-1.39;100.00;101049.81;5028815;28;20330;-67
2021/01/17 08:06:35;;;;;;;26.55;9.15;;;;;;;-1.36;100.00;101055.09;5014816;28;20283;-67
2021/01/17 08:09:08;;;;;;;31.03;9.47;;;;;;;-1.31;100.00;101056.25;5018768;28;20042;-67
2021/01/17 08:11:43;;;;;;;23.93;8.83;;;;;;;-1.28;100.00;101069.22;5023555;28;20275;-68
2021/01/17 08:14:27;;;;;;;28.97;9.77;;;;;;;-1.27;100.00;101065.88;5029724;28;20279;-68
2021/01/17 08:17:09;;;;;;;33.23;9.37;;;;;;;-1.22;100.00;101069.53;5029974;28;20296;-69
2021/01/17 08:19:50;;;;;;;25.45;9.10;;;;;;;-1.19;100.00;101068.84;5028031;28;20323;-68
2021/01/17 08:22:15;;;;;;;23.97;9.57;;;;;;;-1.16;100.00;101073.25;5018864;28;20033;-67
2021/01/17 08:24:41;;;;;;;29.00;10.10;;;;;;;-1.14;100.00;101081.94;5018027;28;20379;-68
2021/01/17 08:27:06;;;;;;;32.07;9.37;;;;;;;-1.13;100.00;101079.44;5020940;28;20013;-66
2021/01/17 08:30:02;;;;;;;32.03;10.10;;;;;;;-1.07;100.00;101086.59;5032889;28;20476;-67
2021/01/17 08:32:45;;;;;;;25.13;8.83;;;;;;;-1.07;100.00;101084.03;5016841;28;20038;-68
2021/01/17 08:35:10;;;;;;;26.80;9.20;;;;;;;-1.02;100.00;101077.44;5019203;28;20645;-67
2021/01/17 08:37:36;;;;;;;24.47;9.17;;;;;;;-0.99;100.00;101075.03;5021515;28;20287;-66
2021/01/17 08:40:04;;;;;;;25.23;9.77;;;;;;;-0.95;100.00;101080.44;5035299;28;20025;-67
2021/01/17 08:42:35;;;;;;;25.83;9.90;;;;;;;-0.93;100.00;101077.94;5013460;28;20351;-68
2021/01/17 08:45:02;;;;;;;26.27;9.30;;;;;;;-0.92;100.00;101084.84;5017690;28;20333;-67
2021/01/17 08:47:33;;;;;;;29.13;10.53;;;;;;;-0.88;100.00;101081.63;5022240;28;20341;-68
2021/01/17 08:49:59;;;;;;;28.03;10.03;;;;;;;-0.83;100.00;101090.47;5036012;28;20290;-68
2021/01/17 08:52:30;;;;;;;28.13;9.87;;;;;;;-0.78;100.00;101077.88;5012846;28;20277;-69
2021/01/17 08:54:56;;;;;;;33.63;10.97;;;;;;;-0.71;100.00;101090.25;5024126;28;20796;-67
2021/01/17 08:57:43;;;;;;;30.67;9.97;;;;;;;-0.71;100.00;101093.69;5022510;28;20295;-67
2021/01/17 09:00:16;;;;;;;31.40;9.53;;;;;;;-0.64;100.00;101093.22;5031064;28;20029;-68
2021/01/17 09:02:41;;;;;;;;;;;;;;;-0.60;100.00;101100.28;5013530;28;20287;-68
2021/01/17 09:05:19;;;;;;;27.23;9.17;;;;;;;-0.63;100.00;101094.97;5027487;28;19921;-68
2021/01/17 09:07:48;;;;;;;26.77;9.70;;;;;;;-0.62;100.00;101101.88;5021127;28;20369;-67
2021/01/17 09:10:15;;;;;;;28.70;9.43;;;;;;;-0.60;100.00;101100.28;5027167;28;20288;-67
2021/01/17 09:12:42;;;;;;;30.50;10.67;;;;;;;-0.60;100.00;101105.44;5019503;28;20280;-68
2021/01/17 09:15:28;;;;;;;23.33;8.83;;;;;;;-0.63;100.00;101105.25;5023803;28;20289;-68
2021/01/17 09:17:59;;;;;;;26.33;9.20;;;;;;;-0.68;100.00;101100.69;5012606;28;20292;-69
2021/01/17 09:20:25;;;;;;;34.50;10.90;;;;;;;-0.62;100.00;101111.25;5032677;28;20283;-69
2021/01/17 09:22:58;;;;;;;26.13;10.17;;;;;;;-0.58;100.00;101112.31;5028332;28;20268;-67
2021/01/17 09:25:24;;;;;;;;;;;;;;;-0.56;100.00;101121.88;5024164;28;20276;-67
2021/01/17 09:27:54;;;;;;;25.80;8.50;;;;;;;-0.54;100.00;101117.69;5019975;28;19920;-68
2021/01/17 09:30:21;;;;;;;29.97;9.90;;;;;;;-0.49;100.00;101125.63;5037616;28;20035;-68
2021/01/17 09:32:48;;;;;;;31.17;9.80;;;;;;;-0.43;100.00;101131.09;5033508;28;20368;-68
2021/01/17 09:35:13;;;;;;;28.83;9.73;;;;;;;-0.35;100.00;101140.09;5023046;28;20329;-68
2021/01/17 09:37:40;;;;;;;27.93;9.73;;;;;;;-0.31;100.00;101135.19;5017672;28;21042;-67
2021/01/17 09:40:06;;;;;;;25.27;10.00;;;;;;;-0.28;100.00;101136.16;5023808;28;20383;-68
2021/01/17 09:42:33;;;;;;;30.50;10.03;;;;;;;-0.32;100.00;101145.38;5034987;28;20280;-68
2021/01/17 09:45:04;;;;;;;26.63;9.87;;;;;;;-0.28;100.00;101147.31;5028096;28;20276;-68
2021/01/17 09:47:30;;;;;;;31.92;10.10;;;;;;;-0.27;100.00;101143.03;5029148;28;20287;-68
2021/01/17 09:50:06;;;;;;;26.63;9.50;;;;;;;-0.28;100.00;101149.88;5027992;28;20033;-67
2021/01/17 09:52:37;;;;;;;28.67;9.80;;;;;;;-0.18;100.00;101154.69;5041645;28;20286;-67
2021/01/17 09:55:07;;;;;;;26.07;9.37;;;;;;;-0.14;100.00;101154.03;5022285;28;20782;-68
2021/01/17 09:57:37;;;;;;;31.00;9.63;;;;;;;0.01;100.00;101153.09;5020161;28;20362;-68
2021/01/17 10:00:07;;;;;;;24.57;9.23;;;;;;;-0.04;100.00;101160.53;5034474;28;20302;-68
2021/01/17 10:02:33;;;;;;;29.87;11.50;;;;;;;-0.03;100.00;101163.19;5027252;28;20264;-68
2021/01/17 10:04:58;;;;;;;31.97;10.50;;;;;;;-0.01;100.00;101178.69;5024281;28;20352;-67
2021/01/17 10:07:24;;;;;;;27.20;9.57;;;;;;;0.03;100.00;101162.63;5020083;28;20214;-67
2021/01/17 10:09:51;;;;;;;25.87;9.60;;;;;;;0.06;100.00;101165.34;5026530;28;20117;-67
2021/01/17 10:12:22;;;;;;;31.10;10.73;;;;;;;0.10;100.00;101162.13;5042439;28;20030;-68
2021/01/17 10:14:47;;;;;;;31.53;11.13;;;;;;;0.15;100.00;101163.25;5029203;28;20341;-69
2021/01/17 10:17:13;;;;;;;30.17;10.60;;;;;;;0.22;100.00;101170.44;5031458;28;20291;-68
2021/01/17 10:19:40;;;;;;;28.03;9.80;;;;;;;0.25;100.00;101174.91;5033517;28;20025;-67
2021/01/17 10:22:10;;;;;;;31.33;10.60;;;;;;;0.40;100.00;101174.78;5022006;28;20033;-67
2021/01/17 10:24:36;;;;;;;26.27;9.60;;;;;;;0.32;100.00;101174.38;5011356;28;20764;-68
2021/01/17 10:27:04;;;;;;;26.67;9.97;;;;;;;0.42;100.00;101174.03;5013044;28;20304;-67
2021/01/17 10:29:40;;;;;;;32.13;10.43;;;;;;;0.46;100.00;101175.94;5015446;28;20885;-67
2021/01/17 10:32:07;;;;;;;27.63;9.17;;;;;;;0.47;100.00;101184.53;5025712;28;20280;-66
2021/01/17 10:34:34;;;;;;;26.87;10.10;;;;;;;0.44;100.00;101181.81;5029239;28;20272;-65
2021/01/17 10:37:02;;;;;;;26.20;9.47;;;;;;;0.51;100.00;101187.38;5028284;28;20291;-66
2021/01/17 10:39:29;;;;;;;27.70;10.17;;;;;;;0.42;100.00;101176.59;5021436;28;20296;-65
2021/01/17 10:42:09;;;;;;;25.87;9.60;;;;;;;0.29;100.00;101176.81;5025767;28;20350;-65
2021/01/17 10:44:41;;;;;;;26.57;9.67;;;;;;;0.26;100.00;101177.53;5029652;28;20279;-65
2021/01/17 10:47:13;;;;;;;27.00;9.48;;;;;;;0.21;100.00;101183.25;5023262;28;20287;-66
2021/01/17 10:49:43;;;;;;;30.70;10.30;;;;;;;0.15;100.00;101182.94;5021877;28;20532;-68
2021/01/17 10:52:20;;;;;;;27.90;10.40;;;;;;;0.13;100.00;101179.41;5020746;28;20481;-68
2021/01/17 10:54:47;;;;;;;31.53;10.63;;;;;;;0.25;100.00;101183.50;5033448;28;20647;-68
2021/01/17 10:57:13;;;;;;;29.37;10.37;;;;;;;0.33;100.00;101173.56;5031556;28;20806;-69
2021/01/17 10:59:39;;;;;;;30.17;11.00;;;;;;;0.37;100.00;101178.09;5041009;28;20326;-68
2021/01/17 11:02:05;;;;;;;26.83;9.67;;;;;;;0.38;100.00;101171.25;5035142;28;20033;-68
2021/01/17 11:04:41;;;;;;;25.33;9.97;;;;;;;0.37;100.00;101170.38;5017225;28;20292;-68
2021/01/17 11:07:07;;;;;;;29.83;9.83;;;;;;;0.38;100.00;101172.13;5011085;28;20393;-68
2021/01/17 11:09:33;;;;;;;27.93;10.53;;;;;;;0.40;100.00;101172.19;5022531;28;20619;-67
2021/01/17 11:11:59;;;;;;;27.67;10.17;;;;;;;0.34;100.00;101167.63;5023480;28;20279;-65
2021/01/17 11:14:26;;;;;;;27.53;10.20;;;;;;;0.30;100.00;101173.41;5026682;28;20646;-66
2021/01/17 11:16:54;;;;;;;30.53;9.90;;;;;;;0.36;100.00;101173.72;5039958;28;20039;-66
2021/01/17 11:19:32;;;;;;;29.40;10.57;;;;;;;0.50;100.00;101171.84;5033464;28;20279;-66